sensor_id;sensor_type;location;lat;lon;timestamp;P1;durP1;ratioP1;P2;durP2;ratioP2
25972;SDS011;13765;51.166;4.466;2023-04-23T00:01:42;35.38;;;14.25;;
25972;SDS011;13765;51.166;4.466;2023-04-23T00:04:09;34.05;;;13.30;;
25972;SDS011;13765;51.166;4.466;2023-04-23T00:06:37;31.30;;;11.88;;
25972;SDS011;13765;51.166;4.466;2023-04-23T00:09:07;29.75;;;11.50;;
25972;SDS011;13765;51.166;4.466;2023-04-23T00:11:33;28.63;;;12.35;;
25972;SDS011;13765;51.166;4.466;2023-04-23T00:13:59;29.55;;;11.68;;
25972;SDS011;13765;51.166;4.466;2023-04-23T00:16:25;30.92;;;13.15;;
25972;SDS011;13765;51.166;4.466;2023-04-23T00:18:51;28.67;;;11.48;;
25972;SDS011;13765;51.166;4.466;2023-04-23T00:21:17;27.88;;;12.02;;
25972;SDS011;13765;51.166;4.466;2023-04-23T00:23:45;32.28;;;12.98;;
25972;SDS011;13765;51.166;4.466;2023-04-23T00:26:10;35.92;;;13.85;;
25972;SDS011;13765;51.166;4.466;2023-04-23T00:28:36;33.33;;;13.23;;
25972;SDS011;13765;51.166;4.466;2023-04-23T00:31:04;29.40;;;11.00;;
25972;SDS011;13765;51.166;4.466;2023-04-23T00:33:30;29.00;;;13.52;;
25972;SDS011;13765;51.166;4.466;2023-04-23T00:35:58;28.00;;;10.80;;
25972;SDS011;13765;51.166;4.466;2023-04-23T00:38:24;27.52;;;11.65;;
25972;SDS011;13765;51.166;4.466;2023-04-23T00:40:53;29.15;;;11.55;;
25972;SDS011;13765;51.166;4.466;2023-04-23T00:43:22;26.20;;;10.75;;
25972;SDS011;13765;51.166;4.466;2023-04-23T00:45:48;27.73;;;12.07;;
25972;SDS011;13765;51.166;4.466;2023-04-23T00:48:15;26.00;;;10.45;;
25972;SDS011;13765;51.166;4.466;2023-04-23T00:50:40;28.50;;;11.93;;
25972;SDS011;13765;51.166;4.466;2023-04-23T00:53:06;28.75;;;12.05;;
25972;SDS011;13765;51.166;4.466;2023-04-23T00:55:32;27.90;;;11.60;;
25972;SDS011;13765;51.166;4.466;2023-04-23T00:57:58;28.98;;;11.07;;
25972;SDS011;13765;51.166;4.466;2023-04-23T01:00:27;25.65;;;10.50;;
25972;SDS011;13765;51.166;4.466;2023-04-23T01:02:53;30.40;;;12.45;;
25972;SDS011;13765;51.166;4.466;2023-04-23T01:05:22;28.00;;;11.77;;
25972;SDS011;13765;51.166;4.466;2023-04-23T01:07:48;22.17;;;10.10;;
25972;SDS011;13765;51.166;4.466;2023-04-23T01:10:15;30.05;;;11.85;;
25972;SDS011;13765;51.166;4.466;2023-04-23T01:12:41;27.92;;;10.68;;
25972;SDS011;13765;51.166;4.466;2023-04-23T01:15:07;29.73;;;11.25;;
25972;SDS011;13765;51.166;4.466;2023-04-23T01:17:38;29.10;;;11.02;;
25972;SDS011;13765;51.166;4.466;2023-04-23T01:20:04;25.40;;;10.13;;
25972;SDS011;13765;51.166;4.466;2023-04-23T01:22:32;24.25;;;9.82;;
25972;SDS011;13765;51.166;4.466;2023-04-23T01:25:03;28.92;;;11.45;;
25972;SDS011;13765;51.166;4.466;2023-04-23T01:27:29;29.40;;;12.00;;
25972;SDS011;13765;51.166;4.466;2023-04-23T01:30:00;27.92;;;12.20;;
25972;SDS011;13765;51.166;4.466;2023-04-23T01:32:31;25.80;;;9.90;;
25972;SDS011;13765;51.166;4.466;2023-04-23T01:34:57;25.08;;;10.80;;
25972;SDS011;13765;51.166;4.466;2023-04-23T01:37:24;26.70;;;11.85;;
25972;SDS011;13765;51.166;4.466;2023-04-23T01:39:51;27.08;;;10.73;;
25972;SDS011;13765;51.166;4.466;2023-04-23T01:42:17;22.58;;;10.40;;
25972;SDS011;13765;51.166;4.466;2023-04-23T01:44:47;29.27;;;11.52;;
25972;SDS011;13765;51.166;4.466;2023-04-23T01:47:13;29.60;;;10.73;;
25972;SDS011;13765;51.166;4.466;2023-04-23T01:49:39;29.20;;;9.88;;
25972;SDS011;13765;51.166;4.466;2023-04-23T01:52:05;27.08;;;11.25;;
25972;SDS011;13765;51.166;4.466;2023-04-23T01:54:30;25.27;;;10.75;;
25972;SDS011;13765;51.166;4.466;2023-04-23T01:56:58;23.25;;;8.77;;
25972;SDS011;13765;51.166;4.466;2023-04-23T01:59:24;24.38;;;9.63;;
25972;SDS011;13765;51.166;4.466;2023-04-23T02:01:50;25.65;;;10.30;;
25972;SDS011;13765;51.166;4.466;2023-04-23T02:04:21;27.73;;;10.63;;
25972;SDS011;13765;51.166;4.466;2023-04-23T02:06:47;26.73;;;10.00;;
25972;SDS011;13765;51.166;4.466;2023-04-23T02:09:16;28.85;;;10.15;;
25972;SDS011;13765;51.166;4.466;2023-04-23T02:11:45;29.90;;;11.48;;
25972;SDS011;13765;51.166;4.466;2023-04-23T02:14:11;26.48;;;11.10;;
25972;SDS011;13765;51.166;4.466;2023-04-23T02:16:37;23.70;;;9.63;;
25972;SDS011;13765;51.166;4.466;2023-04-23T02:19:03;24.67;;;8.65;;
25972;SDS011;13765;51.166;4.466;2023-04-23T02:21:29;24.52;;;8.73;;
25972;SDS011;13765;51.166;4.466;2023-04-23T02:23:55;30.23;;;11.55;;
25972;SDS011;13765;51.166;4.466;2023-04-23T02:26:23;31.23;;;11.10;;
25972;SDS011;13765;51.166;4.466;2023-04-23T02:28:49;24.00;;;9.35;;
25972;SDS011;13765;51.166;4.466;2023-04-23T02:31:15;21.40;;;9.20;;
25972;SDS011;13765;51.166;4.466;2023-04-23T02:33:44;22.42;;;10.07;;
25972;SDS011;13765;51.166;4.466;2023-04-23T02:36:11;24.08;;;9.80;;
25972;SDS011;13765;51.166;4.466;2023-04-23T02:38:36;24.42;;;10.02;;
25972;SDS011;13765;51.166;4.466;2023-04-23T02:41:05;30.52;;;9.57;;
25972;SDS011;13765;51.166;4.466;2023-04-23T02:43:31;22.40;;;9.18;;
25972;SDS011;13765;51.166;4.466;2023-04-23T02:45:59;22.10;;;8.57;;
25972;SDS011;13765;51.166;4.466;2023-04-23T02:48:31;28.10;;;9.98;;
25972;SDS011;13765;51.166;4.466;2023-04-23T02:51:01;26.35;;;9.65;;
25972;SDS011;13765;51.166;4.466;2023-04-23T02:53:27;26.60;;;10.48;;
25972;SDS011;13765;51.166;4.466;2023-04-23T02:55:52;21.05;;;9.05;;
25972;SDS011;13765;51.166;4.466;2023-04-23T02:58:18;23.17;;;9.60;;
25972;SDS011;13765;51.166;4.466;2023-04-23T03:00:44;22.67;;;9.02;;
25972;SDS011;13765;51.166;4.466;2023-04-23T03:03:12;24.27;;;9.50;;
25972;SDS011;13765;51.166;4.466;2023-04-23T03:05:37;23.88;;;9.05;;
25972;SDS011;13765;51.166;4.466;2023-04-23T03:08:03;20.60;;;8.77;;
25972;SDS011;13765;51.166;4.466;2023-04-23T03:10:31;23.08;;;9.55;;
25972;SDS011;13765;51.166;4.466;2023-04-23T03:12:59;22.42;;;9.40;;
25972;SDS011;13765;51.166;4.466;2023-04-23T03:15:26;21.67;;;9.02;;
25972;SDS011;13765;51.166;4.466;2023-04-23T03:17:52;22.88;;;8.30;;
25972;SDS011;13765;51.166;4.466;2023-04-23T03:20:18;22.58;;;7.70;;
25972;SDS011;13765;51.166;4.466;2023-04-23T03:22:46;21.42;;;8.90;;
25972;SDS011;13765;51.166;4.466;2023-04-23T03:25:12;20.42;;;7.65;;
25972;SDS011;13765;51.166;4.466;2023-04-23T03:27:38;23.98;;;9.45;;
25972;SDS011;13765;51.166;4.466;2023-04-23T03:30:05;20.33;;;8.00;;
25972;SDS011;13765;51.166;4.466;2023-04-23T03:32:33;19.38;;;7.82;;
25972;SDS011;13765;51.166;4.466;2023-04-23T03:34:59;24.42;;;9.40;;
25972;SDS011;13765;51.166;4.466;2023-04-23T03:37:27;21.08;;;7.55;;
25972;SDS011;13765;51.166;4.466;2023-04-23T03:39:55;23.17;;;8.73;;
25972;SDS011;13765;51.166;4.466;2023-04-23T03:42:20;20.75;;;7.85;;
25972;SDS011;13765;51.166;4.466;2023-04-23T03:44:46;27.45;;;8.02;;
25972;SDS011;13765;51.166;4.466;2023-04-23T03:47:12;22.50;;;8.30;;
25972;SDS011;13765;51.166;4.466;2023-04-23T03:49:37;24.90;;;9.43;;
25972;SDS011;13765;51.166;4.466;2023-04-23T03:52:04;19.92;;;8.88;;
25972;SDS011;13765;51.166;4.466;2023-04-23T03:54:32;22.00;;;7.32;;
25972;SDS011;13765;51.166;4.466;2023-04-23T03:56:58;19.90;;;6.80;;
25972;SDS011;13765;51.166;4.466;2023-04-23T03:59:28;22.67;;;8.45;;
25972;SDS011;13765;51.166;4.466;2023-04-23T04:01:53;21.58;;;7.38;;
25972;SDS011;13765;51.166;4.466;2023-04-23T04:04:19;21.73;;;8.52;;
25972;SDS011;13765;51.166;4.466;2023-04-23T04:06:45;19.40;;;6.60;;
25972;SDS011;13765;51.166;4.466;2023-04-23T04:09:10;23.73;;;8.18;;
25972;SDS011;13765;51.166;4.466;2023-04-23T04:11:36;22.38;;;6.97;;
25972;SDS011;13765;51.166;4.466;2023-04-23T04:14:02;24.33;;;8.23;;
25972;SDS011;13765;51.166;4.466;2023-04-23T04:16:27;22.38;;;7.63;;
25972;SDS011;13765;51.166;4.466;2023-04-23T04:18:55;22.13;;;7.82;;
25972;SDS011;13765;51.166;4.466;2023-04-23T04:21:23;20.38;;;7.05;;
25972;SDS011;13765;51.166;4.466;2023-04-23T04:23:54;18.23;;;6.78;;
25972;SDS011;13765;51.166;4.466;2023-04-23T04:26:20;23.95;;;7.55;;
25972;SDS011;13765;51.166;4.466;2023-04-23T04:28:45;19.13;;;6.50;;
25972;SDS011;13765;51.166;4.466;2023-04-23T04:31:16;19.02;;;7.50;;
25972;SDS011;13765;51.166;4.466;2023-04-23T04:33:41;21.42;;;8.02;;
25972;SDS011;13765;51.166;4.466;2023-04-23T04:36:10;22.98;;;8.43;;
25972;SDS011;13765;51.166;4.466;2023-04-23T04:38:38;19.85;;;7.10;;
25972;SDS011;13765;51.166;4.466;2023-04-23T04:41:04;25.98;;;8.25;;
25972;SDS011;13765;51.166;4.466;2023-04-23T04:43:30;21.25;;;7.65;;
25972;SDS011;13765;51.166;4.466;2023-04-23T04:45:57;23.10;;;8.13;;
25972;SDS011;13765;51.166;4.466;2023-04-23T04:48:25;19.67;;;7.50;;
25972;SDS011;13765;51.166;4.466;2023-04-23T04:50:54;21.95;;;8.65;;
25972;SDS011;13765;51.166;4.466;2023-04-23T04:53:21;20.48;;;7.45;;
25972;SDS011;13765;51.166;4.466;2023-04-23T04:55:50;17.33;;;6.57;;
25972;SDS011;13765;51.166;4.466;2023-04-23T04:58:15;19.85;;;6.20;;
25972;SDS011;13765;51.166;4.466;2023-04-23T05:00:41;20.55;;;7.40;;
25972;SDS011;13765;51.166;4.466;2023-04-23T05:03:07;25.45;;;8.57;;
25972;SDS011;13765;51.166;4.466;2023-04-23T05:05:33;21.55;;;6.90;;
25972;SDS011;13765;51.166;4.466;2023-04-23T05:07:58;19.80;;;7.93;;
25972;SDS011;13765;51.166;4.466;2023-04-23T05:10:26;19.48;;;7.13;;
25972;SDS011;13765;51.166;4.466;2023-04-23T05:12:53;24.30;;;8.10;;
25972;SDS011;13765;51.166;4.466;2023-04-23T05:15:22;21.48;;;7.85;;
25972;SDS011;13765;51.166;4.466;2023-04-23T05:17:48;22.52;;;8.00;;
25972;SDS011;13765;51.166;4.466;2023-04-23T05:20:18;14.48;;;7.00;;
25972;SDS011;13765;51.166;4.466;2023-04-23T05:22:47;20.88;;;8.30;;
25972;SDS011;13765;51.166;4.466;2023-04-23T05:25:13;25.25;;;8.20;;
25972;SDS011;13765;51.166;4.466;2023-04-23T05:27:41;18.60;;;6.82;;
25972;SDS011;13765;51.166;4.466;2023-04-23T05:30:07;20.23;;;7.43;;
25972;SDS011;13765;51.166;4.466;2023-04-23T05:32:37;19.45;;;7.53;;
25972;SDS011;13765;51.166;4.466;2023-04-23T05:35:03;20.67;;;6.70;;
25972;SDS011;13765;51.166;4.466;2023-04-23T05:37:30;21.13;;;7.10;;
25972;SDS011;13765;51.166;4.466;2023-04-23T05:39:58;21.17;;;7.05;;
25972;SDS011;13765;51.166;4.466;2023-04-23T05:42:26;27.00;;;7.72;;
25972;SDS011;13765;51.166;4.466;2023-04-23T05:44:52;21.10;;;6.60;;
25972;SDS011;13765;51.166;4.466;2023-04-23T05:47:20;16.17;;;6.40;;
25972;SDS011;13765;51.166;4.466;2023-04-23T05:49:50;16.67;;;6.38;;
25972;SDS011;13765;51.166;4.466;2023-04-23T05:52:17;18.45;;;6.60;;
25972;SDS011;13765;51.166;4.466;2023-04-23T05:54:43;16.75;;;6.55;;
25972;SDS011;13765;51.166;4.466;2023-04-23T05:57:10;14.13;;;5.43;;
25972;SDS011;13765;51.166;4.466;2023-04-23T05:59:36;14.82;;;5.72;;
25972;SDS011;13765;51.166;4.466;2023-04-23T06:02:02;12.43;;;4.47;;
25972;SDS011;13765;51.166;4.466;2023-04-23T06:04:30;12.02;;;4.18;;
25972;SDS011;13765;51.166;4.466;2023-04-23T06:06:58;8.00;;;3.55;;
25972;SDS011;13765;51.166;4.466;2023-04-23T06:09:24;14.45;;;4.20;;
25972;SDS011;13765;51.166;4.466;2023-04-23T06:11:52;15.27;;;4.53;;
25972;SDS011;13765;51.166;4.466;2023-04-23T06:14:21;13.57;;;5.03;;
25972;SDS011;13765;51.166;4.466;2023-04-23T06:16:46;8.32;;;3.45;;
25972;SDS011;13765;51.166;4.466;2023-04-23T06:19:12;10.90;;;3.72;;
25972;SDS011;13765;51.166;4.466;2023-04-23T06:21:40;7.30;;;3.28;;
25972;SDS011;13765;51.166;4.466;2023-04-23T06:26:43;6.78;;;3.13;;
25972;SDS011;13765;51.166;4.466;2023-04-23T06:41:52;11.18;;;2.72;;
25972;SDS011;13765;51.166;4.466;2023-04-23T06:44:17;11.73;;;2.85;;
25972;SDS011;13765;51.166;4.466;2023-04-23T06:46:43;12.02;;;3.10;;
25972;SDS011;13765;51.166;4.466;2023-04-23T06:49:09;5.20;;;2.28;;
25972;SDS011;13765;51.166;4.466;2023-04-23T06:51:39;10.50;;;3.20;;
25972;SDS011;13765;51.166;4.466;2023-04-23T06:54:08;7.90;;;3.45;;
25972;SDS011;13765;51.166;4.466;2023-04-23T06:56:36;5.95;;;2.20;;
25972;SDS011;13765;51.166;4.466;2023-04-23T06:59:04;12.68;;;3.47;;
25972;SDS011;13765;51.166;4.466;2023-04-23T07:01:33;11.68;;;3.25;;
25972;SDS011;13765;51.166;4.466;2023-04-23T07:04:01;12.55;;;2.92;;
25972;SDS011;13765;51.166;4.466;2023-04-23T07:06:31;7.28;;;2.20;;
25972;SDS011;13765;51.166;4.466;2023-04-23T07:08:58;5.82;;;2.05;;
25972;SDS011;13765;51.166;4.466;2023-04-23T07:11:26;7.25;;;2.47;;
25972;SDS011;13765;51.166;4.466;2023-04-23T07:13:53;11.02;;;1.85;;
25972;SDS011;13765;51.166;4.466;2023-04-23T07:16:21;8.57;;;2.20;;
25972;SDS011;13765;51.166;4.466;2023-04-23T07:18:48;3.53;;;1.70;;
25972;SDS011;13765;51.166;4.466;2023-04-23T07:21:13;10.27;;;2.70;;
25972;SDS011;13765;51.166;4.466;2023-04-23T07:23:41;8.38;;;2.50;;
25972;SDS011;13765;51.166;4.466;2023-04-23T07:26:07;7.40;;;2.15;;
25972;SDS011;13765;51.166;4.466;2023-04-23T07:28:35;13.90;;;2.53;;
25972;SDS011;13765;51.166;4.466;2023-04-23T07:31:01;7.13;;;2.08;;
25972;SDS011;13765;51.166;4.466;2023-04-23T07:33:28;7.68;;;3.30;;
25972;SDS011;13765;51.166;4.466;2023-04-23T07:35:54;9.68;;;2.33;;
25972;SDS011;13765;51.166;4.466;2023-04-23T07:38:20;6.13;;;2.20;;
25972;SDS011;13765;51.166;4.466;2023-04-23T07:40:46;10.52;;;2.22;;
25972;SDS011;13765;51.166;4.466;2023-04-23T07:43:11;9.82;;;2.08;;
25972;SDS011;13765;51.166;4.466;2023-04-23T07:45:40;14.10;;;2.17;;
25972;SDS011;13765;51.166;4.466;2023-04-23T07:48:08;8.90;;;1.52;;
25972;SDS011;13765;51.166;4.466;2023-04-23T07:50:36;6.13;;;1.80;;
25972;SDS011;13765;51.166;4.466;2023-04-23T07:53:02;9.35;;;3.05;;
25972;SDS011;13765;51.166;4.466;2023-04-23T07:55:27;9.18;;;2.20;;
25972;SDS011;13765;51.166;4.466;2023-04-23T07:57:58;5.45;;;1.90;;
25972;SDS011;13765;51.166;4.466;2023-04-23T08:00:26;5.32;;;1.65;;
25972;SDS011;13765;51.166;4.466;2023-04-23T08:02:52;7.00;;;1.92;;
25972;SDS011;13765;51.166;4.466;2023-04-23T08:05:20;6.97;;;1.70;;
25972;SDS011;13765;51.166;4.466;2023-04-23T08:07:46;4.60;;;1.92;;
25972;SDS011;13765;51.166;4.466;2023-04-23T08:10:14;4.10;;;1.92;;
25972;SDS011;13765;51.166;4.466;2023-04-23T08:12:42;5.82;;;1.45;;
25972;SDS011;13765;51.166;4.466;2023-04-23T08:15:08;2.65;;;1.33;;
25972;SDS011;13765;51.166;4.466;2023-04-23T08:17:34;9.57;;;2.97;;
25972;SDS011;13765;51.166;4.466;2023-04-23T08:20:02;11.25;;;2.15;;
25972;SDS011;13765;51.166;4.466;2023-04-23T08:22:30;4.43;;;1.38;;
25972;SDS011;13765;51.166;4.466;2023-04-23T08:24:56;5.22;;;1.30;;
25972;SDS011;13765;51.166;4.466;2023-04-23T08:27:22;5.13;;;1.25;;
25972;SDS011;13765;51.166;4.466;2023-04-23T08:29:50;6.15;;;1.67;;
25972;SDS011;13765;51.166;4.466;2023-04-23T08:32:15;7.93;;;1.90;;
25972;SDS011;13765;51.166;4.466;2023-04-23T08:34:41;4.82;;;1.52;;
25972;SDS011;13765;51.166;4.466;2023-04-23T08:37:09;9.15;;;1.95;;
25972;SDS011;13765;51.166;4.466;2023-04-23T08:39:35;1.73;;;1.05;;
25972;SDS011;13765;51.166;4.466;2023-04-23T08:42:09;10.45;;;2.00;;
25972;SDS011;13765;51.166;4.466;2023-04-23T08:44:51;5.55;;;1.52;;
25972;SDS011;13765;51.166;4.466;2023-04-23T08:47:18;4.60;;;1.60;;
25972;SDS011;13765;51.166;4.466;2023-04-23T08:49:48;3.92;;;1.42;;
25972;SDS011;13765;51.166;4.466;2023-04-23T08:52:23;8.77;;;1.63;;
25972;SDS011;13765;51.166;4.466;2023-04-23T08:54:53;5.90;;;1.60;;
25972;SDS011;13765;51.166;4.466;2023-04-23T08:57:24;5.22;;;0.98;;
25972;SDS011;13765;51.166;4.466;2023-04-23T08:59:56;7.32;;;1.65;;
25972;SDS011;13765;51.166;4.466;2023-04-23T09:02:32;7.88;;;1.95;;
25972;SDS011;13765;51.166;4.466;2023-04-23T09:05:01;4.38;;;1.02;;
25972;SDS011;13765;51.166;4.466;2023-04-23T09:07:30;4.15;;;1.30;;
25972;SDS011;13765;51.166;4.466;2023-04-23T09:10:06;8.88;;;1.23;;
25972;SDS011;13765;51.166;4.466;2023-04-23T09:14:59;8.90;;;2.08;;
25972;SDS011;13765;51.166;4.466;2023-04-23T09:17:29;6.28;;;1.25;;
25972;SDS011;13765;51.166;4.466;2023-04-23T09:19:56;9.95;;;1.90;;
25972;SDS011;13765;51.166;4.466;2023-04-23T09:22:36;5.78;;;1.00;;
25972;SDS011;13765;51.166;4.466;2023-04-23T09:25:13;4.43;;;1.42;;
25972;SDS011;13765;51.166;4.466;2023-04-23T09:27:49;3.65;;;1.60;;
25972;SDS011;13765;51.166;4.466;2023-04-23T09:30:18;6.68;;;1.40;;
25972;SDS011;13765;51.166;4.466;2023-04-23T09:32:46;7.07;;;1.35;;
25972;SDS011;13765;51.166;4.466;2023-04-23T09:35:16;8.23;;;1.48;;
25972;SDS011;13765;51.166;4.466;2023-04-23T09:37:46;1.48;;;1.10;;
25972;SDS011;13765;51.166;4.466;2023-04-23T09:40:13;2.85;;;1.55;;
25972;SDS011;13765;51.166;4.466;2023-04-23T09:42:41;3.50;;;1.55;;
25972;SDS011;13765;51.166;4.466;2023-04-23T09:45:13;15.50;;;2.10;;
25972;SDS011;13765;51.166;4.466;2023-04-23T09:48:00;3.88;;;0.98;;
25972;SDS011;13765;51.166;4.466;2023-04-23T09:50:34;4.32;;;1.48;;
25972;SDS011;13765;51.166;4.466;2023-04-23T09:53:05;9.68;;;1.60;;
25972;SDS011;13765;51.166;4.466;2023-04-23T09:55:32;10.40;;;1.42;;
25972;SDS011;13765;51.166;4.466;2023-04-23T09:58:11;8.00;;;1.10;;
25972;SDS011;13765;51.166;4.466;2023-04-23T10:00:40;9.38;;;1.55;;
25972;SDS011;13765;51.166;4.466;2023-04-23T10:03:06;2.63;;;1.08;;
25972;SDS011;13765;51.166;4.466;2023-04-23T10:05:40;6.35;;;1.38;;
25972;SDS011;13765;51.166;4.466;2023-04-23T10:08:10;2.35;;;0.98;;
25972;SDS011;13765;51.166;4.466;2023-04-23T10:10:40;5.32;;;1.08;;
25972;SDS011;13765;51.166;4.466;2023-04-23T10:13:08;4.20;;;1.70;;
25972;SDS011;13765;51.166;4.466;2023-04-23T10:15:36;5.95;;;1.52;;
25972;SDS011;13765;51.166;4.466;2023-04-23T10:18:05;1.58;;;1.20;;
25972;SDS011;13765;51.166;4.466;2023-04-23T10:20:36;2.90;;;0.60;;
25972;SDS011;13765;51.166;4.466;2023-04-23T10:23:06;5.57;;;1.42;;
25972;SDS011;13765;51.166;4.466;2023-04-23T10:25:35;4.32;;;1.25;;
25972;SDS011;13765;51.166;4.466;2023-04-23T10:28:03;4.55;;;0.95;;
25972;SDS011;13765;51.166;4.466;2023-04-23T10:30:35;6.63;;;1.70;;
25972;SDS011;13765;51.166;4.466;2023-04-23T10:33:01;5.20;;;1.15;;
25972;SDS011;13765;51.166;4.466;2023-04-23T10:35:31;6.72;;;1.42;;
25972;SDS011;13765;51.166;4.466;2023-04-23T10:38:00;5.53;;;2.47;;
25972;SDS011;13765;51.166;4.466;2023-04-23T10:40:29;0.70;;;0.70;;
25972;SDS011;13765;51.166;4.466;2023-04-23T10:42:56;6.70;;;1.00;;
25972;SDS011;13765;51.166;4.466;2023-04-23T10:45:23;2.45;;;1.58;;
25972;SDS011;13765;51.166;4.466;2023-04-23T10:47:49;8.93;;;2.08;;
25972;SDS011;13765;51.166;4.466;2023-04-23T10:50:29;3.22;;;1.10;;
25972;SDS011;13765;51.166;4.466;2023-04-23T10:53:05;3.15;;;1.00;;
25972;SDS011;13765;51.166;4.466;2023-04-23T10:55:45;2.08;;;1.00;;
25972;SDS011;13765;51.166;4.466;2023-04-23T10:58:13;11.10;;;1.38;;
25972;SDS011;13765;51.166;4.466;2023-04-23T11:03:25;2.78;;;1.08;;
25972;SDS011;13765;51.166;4.466;2023-04-23T11:06:00;4.78;;;1.30;;
25972;SDS011;13765;51.166;4.466;2023-04-23T11:08:29;5.70;;;1.05;;
25972;SDS011;13765;51.166;4.466;2023-04-23T11:10:58;6.03;;;0.95;;
25972;SDS011;13765;51.166;4.466;2023-04-23T11:13:28;1.20;;;0.88;;
25972;SDS011;13765;51.166;4.466;2023-04-23T11:18:55;2.85;;;0.82;;
25972;SDS011;13765;51.166;4.466;2023-04-23T11:21:22;3.17;;;1.33;;
25972;SDS011;13765;51.166;4.466;2023-04-23T11:24:40;1.85;;;1.20;;
25972;SDS011;13765;51.166;4.466;2023-04-23T11:27:09;5.28;;;1.02;;
25972;SDS011;13765;51.166;4.466;2023-04-23T11:29:37;3.60;;;0.93;;
25972;SDS011;13765;51.166;4.466;2023-04-23T11:32:06;3.80;;;1.60;;
25972;SDS011;13765;51.166;4.466;2023-04-23T11:34:40;3.72;;;1.13;;
25972;SDS011;13765;51.166;4.466;2023-04-23T11:37:08;1.80;;;0.57;;
25972;SDS011;13765;51.166;4.466;2023-04-23T11:39:37;9.40;;;1.42;;
25972;SDS011;13765;51.166;4.466;2023-04-23T11:42:11;5.78;;;1.15;;
25972;SDS011;13765;51.166;4.466;2023-04-23T11:44:44;3.75;;;1.17;;
25972;SDS011;13765;51.166;4.466;2023-04-23T11:47:11;2.45;;;0.98;;
25972;SDS011;13765;51.166;4.466;2023-04-23T11:49:41;5.18;;;1.35;;
25972;SDS011;13765;51.166;4.466;2023-04-23T11:52:08;10.23;;;2.22;;
25972;SDS011;13765;51.166;4.466;2023-04-23T11:54:34;5.22;;;1.08;;
25972;SDS011;13765;51.166;4.466;2023-04-23T11:57:00;8.82;;;1.67;;
25972;SDS011;13765;51.166;4.466;2023-04-23T11:59:29;2.50;;;0.82;;
25972;SDS011;13765;51.166;4.466;2023-04-23T12:01:56;8.85;;;2.08;;
25972;SDS011;13765;51.166;4.466;2023-04-23T12:04:24;3.10;;;1.23;;
25972;SDS011;13765;51.166;4.466;2023-04-23T12:06:52;7.78;;;1.10;;
25972;SDS011;13765;51.166;4.466;2023-04-23T12:09:20;8.68;;;1.38;;
25972;SDS011;13765;51.166;4.466;2023-04-23T12:11:49;7.53;;;1.48;;
25972;SDS011;13765;51.166;4.466;2023-04-23T12:14:18;3.42;;;0.93;;
25972;SDS011;13765;51.166;4.466;2023-04-23T12:16:52;5.35;;;1.33;;
25972;SDS011;13765;51.166;4.466;2023-04-23T12:19:19;4.55;;;1.20;;
25972;SDS011;13765;51.166;4.466;2023-04-23T12:22:02;1.20;;;0.60;;
25972;SDS011;13765;51.166;4.466;2023-04-23T12:24:45;7.15;;;2.25;;
25972;SDS011;13765;51.166;4.466;2023-04-23T12:27:13;2.63;;;1.13;;
25972;SDS011;13765;51.166;4.466;2023-04-23T12:29:40;3.53;;;1.40;;
25972;SDS011;13765;51.166;4.466;2023-04-23T12:32:08;4.03;;;0.88;;
25972;SDS011;13765;51.166;4.466;2023-04-23T12:34:40;1.33;;;0.93;;
25972;SDS011;13765;51.166;4.466;2023-04-23T12:37:22;2.60;;;1.35;;
25972;SDS011;13765;51.166;4.466;2023-04-23T12:39:49;3.60;;;0.85;;
25972;SDS011;13765;51.166;4.466;2023-04-23T12:42:18;4.50;;;1.25;;
25972;SDS011;13765;51.166;4.466;2023-04-23T12:44:46;9.95;;;1.20;;
25972;SDS011;13765;51.166;4.466;2023-04-23T12:47:12;4.47;;;1.23;;
25972;SDS011;13765;51.166;4.466;2023-04-23T12:49:43;9.00;;;1.65;;
25972;SDS011;13765;51.166;4.466;2023-04-23T12:52:13;3.05;;;1.33;;
25972;SDS011;13765;51.166;4.466;2023-04-23T12:54:44;5.65;;;1.08;;
25972;SDS011;13765;51.166;4.466;2023-04-23T12:57:10;4.30;;;1.45;;
25972;SDS011;13765;51.166;4.466;2023-04-23T12:59:38;1.13;;;0.75;;
25972;SDS011;13765;51.166;4.466;2023-04-23T13:02:06;6.70;;;1.48;;
25972;SDS011;13765;51.166;4.466;2023-04-23T13:04:33;3.03;;;1.30;;
25972;SDS011;13765;51.166;4.466;2023-04-23T13:07:01;5.75;;;1.45;;
25972;SDS011;13765;51.166;4.466;2023-04-23T13:09:28;2.45;;;1.35;;
25972;SDS011;13765;51.166;4.466;2023-04-23T13:11:54;3.15;;;1.50;;
25972;SDS011;13765;51.166;4.466;2023-04-23T13:14:20;2.67;;;1.02;;
25972;SDS011;13765;51.166;4.466;2023-04-23T13:16:45;3.92;;;1.55;;
25972;SDS011;13765;51.166;4.466;2023-04-23T13:19:11;2.40;;;0.88;;
25972;SDS011;13765;51.166;4.466;2023-04-23T13:21:41;7.13;;;1.52;;
25972;SDS011;13765;51.166;4.466;2023-04-23T13:24:07;3.13;;;1.27;;
25972;SDS011;13765;51.166;4.466;2023-04-23T13:26:33;2.10;;;1.00;;
25972;SDS011;13765;51.166;4.466;2023-04-23T13:28:59;8.55;;;1.40;;
25972;SDS011;13765;51.166;4.466;2023-04-23T13:31:28;2.15;;;1.00;;
25972;SDS011;13765;51.166;4.466;2023-04-23T13:33:54;5.07;;;1.63;;
25972;SDS011;13765;51.166;4.466;2023-04-23T13:36:22;3.45;;;1.10;;
25972;SDS011;13765;51.166;4.466;2023-04-23T13:38:53;4.15;;;1.20;;
25972;SDS011;13765;51.166;4.466;2023-04-23T13:41:19;6.18;;;1.88;;
25972;SDS011;13765;51.166;4.466;2023-04-23T13:43:45;4.57;;;1.83;;
25972;SDS011;13765;51.166;4.466;2023-04-23T13:46:13;5.97;;;2.03;;
25972;SDS011;13765;51.166;4.466;2023-04-23T13:48:41;2.90;;;1.00;;
25972;SDS011;13765;51.166;4.466;2023-04-23T13:51:09;5.38;;;1.77;;
25972;SDS011;13765;51.166;4.466;2023-04-23T13:53:34;6.22;;;1.75;;
25972;SDS011;13765;51.166;4.466;2023-04-23T13:56:00;2.97;;;1.33;;
25972;SDS011;13765;51.166;4.466;2023-04-23T13:58:26;2.95;;;1.13;;
25972;SDS011;13765;51.166;4.466;2023-04-23T14:03:53;5.75;;;1.08;;
25972;SDS011;13765;51.166;4.466;2023-04-23T14:06:22;2.47;;;1.13;;
25972;SDS011;13765;51.166;4.466;2023-04-23T14:08:54;5.03;;;1.17;;
25972;SDS011;13765;51.166;4.466;2023-04-23T14:11:20;3.03;;;0.90;;
25972;SDS011;13765;51.166;4.466;2023-04-23T14:13:50;9.82;;;2.00;;
25972;SDS011;13765;51.166;4.466;2023-04-23T14:16:16;1.70;;;0.95;;
25972;SDS011;13765;51.166;4.466;2023-04-23T14:18:42;5.13;;;1.13;;
25972;SDS011;13765;51.166;4.466;2023-04-23T14:21:07;4.78;;;1.30;;
25972;SDS011;13765;51.166;4.466;2023-04-23T14:26:41;2.10;;;1.13;;
25972;SDS011;13765;51.166;4.466;2023-04-23T14:29:09;1.88;;;1.00;;
25972;SDS011;13765;51.166;4.466;2023-04-23T14:31:42;4.57;;;1.17;;
25972;SDS011;13765;51.166;4.466;2023-04-23T14:34:10;4.75;;;1.42;;
25972;SDS011;13765;51.166;4.466;2023-04-23T14:36:38;6.68;;;1.35;;
25972;SDS011;13765;51.166;4.466;2023-04-23T14:39:06;4.88;;;1.67;;
25972;SDS011;13765;51.166;4.466;2023-04-23T14:41:32;3.88;;;1.42;;
25972;SDS011;13765;51.166;4.466;2023-04-23T14:44:01;8.65;;;1.95;;
25972;SDS011;13765;51.166;4.466;2023-04-23T14:46:29;2.17;;;0.77;;
25972;SDS011;13765;51.166;4.466;2023-04-23T14:49:00;1.70;;;1.08;;
25972;SDS011;13765;51.166;4.466;2023-04-23T14:51:25;2.72;;;1.23;;
25972;SDS011;13765;51.166;4.466;2023-04-23T14:53:51;8.45;;;1.75;;
25972;SDS011;13765;51.166;4.466;2023-04-23T14:56:17;3.42;;;1.27;;
25972;SDS011;13765;51.166;4.466;2023-04-23T14:58:43;2.03;;;1.23;;
25972;SDS011;13765;51.166;4.466;2023-04-23T15:01:10;6.03;;;1.83;;
25972;SDS011;13765;51.166;4.466;2023-04-23T15:03:42;2.97;;;1.63;;
25972;SDS011;13765;51.166;4.466;2023-04-23T15:06:11;5.03;;;1.58;;
25972;SDS011;13765;51.166;4.466;2023-04-23T15:08:39;3.35;;;1.50;;
25972;SDS011;13765;51.166;4.466;2023-04-23T15:11:04;3.60;;;1.48;;
25972;SDS011;13765;51.166;4.466;2023-04-23T15:16:24;15.35;;;1.92;;